createdAt,value
2022-12-31T00:00:53.689Z,11.20
2022-12-31T00:01:55.608Z,11.20
2022-12-31T00:02:57.558Z,11.30
2022-12-31T00:03:59.748Z,11.30
2022-12-31T00:05:01.719Z,11.40
2022-12-31T00:06:17.315Z,11.40
2022-12-31T00:07:19.081Z,11.40
2022-12-31T00:08:20.845Z,11.40
2022-12-31T00:09:22.578Z,11.40
2022-12-31T00:10:24.987Z,11.40
2022-12-31T00:11:28.992Z,11.40
2022-12-31T00:12:30.671Z,11.40
2022-12-31T00:13:32.409Z,11.40
2022-12-31T00:14:34.122Z,11.50
2022-12-31T00:15:36.267Z,11.50
2022-12-31T00:16:40.628Z,11.50
2022-12-31T00:17:42.448Z,11.50
2022-12-31T00:18:46.333Z,11.60
2022-12-31T00:19:48.060Z,11.60
2022-12-31T00:20:49.774Z,11.70
2022-12-31T00:21:51.562Z,11.70
2022-12-31T00:22:53.390Z,11.70
2022-12-31T00:23:55.737Z,11.60
2022-12-31T00:24:57.459Z,11.60
2022-12-31T00:26:04.249Z,11.70
2022-12-31T00:27:05.972Z,11.70
2022-12-31T00:28:07.709Z,11.70
2022-12-31T00:29:10.470Z,11.80
2022-12-31T00:30:12.939Z,11.80
2022-12-31T00:31:20.724Z,11.90
2022-12-31T00:32:22.590Z,11.90
2022-12-31T00:33:24.345Z,11.90
2022-12-31T00:34:26.173Z,11.80
2022-12-31T00:35:27.917Z,11.80
2022-12-31T00:36:35.474Z,11.90
2022-12-31T00:37:37.995Z,11.90
2022-12-31T00:38:41.863Z,11.90
2022-12-31T00:39:43.599Z,11.90
2022-12-31T00:40:45.280Z,11.90
2022-12-31T00:41:46.978Z,11.90
2022-12-31T00:42:48.731Z,11.90
2022-12-31T00:43:50.753Z,11.90
2022-12-31T00:44:52.504Z,11.90
2022-12-31T00:45:54.706Z,11.80
2022-12-31T00:46:56.485Z,11.80
2022-12-31T00:47:58.227Z,11.80
2022-12-31T00:49:00.023Z,11.90
2022-12-31T00:50:01.824Z,11.90
2022-12-31T00:51:05.939Z,12.00
2022-12-31T00:52:07.640Z,12.00
2022-12-31T00:53:09.377Z,12.00
2022-12-31T00:54:11.181Z,12.00
2022-12-31T00:55:12.943Z,12.00
2022-12-31T00:56:20.596Z,12.00
2022-12-31T00:57:22.341Z,12.00
2022-12-31T00:58:24.066Z,12.00
2022-12-31T00:59:25.787Z,12.10
2022-12-31T01:00:27.596Z,12.10
2022-12-31T01:01:38.376Z,12.10
2022-12-31T01:02:40.302Z,12.10
2022-12-31T01:03:42.412Z,12.10
2022-12-31T01:04:44.624Z,12.10
2022-12-31T01:05:46.429Z,12.20
2022-12-31T01:06:48.430Z,12.20
2022-12-31T01:07:50.166Z,12.10
2022-12-31T01:08:53.658Z,12.20
2022-12-31T01:09:55.363Z,12.10
2022-12-31T01:11:16.025Z,12.10
2022-12-31T01:12:17.780Z,12.10
2022-12-31T01:13:19.623Z,12.20
2022-12-31T01:14:21.575Z,12.20
2022-12-31T01:15:23.577Z,12.20
2022-12-31T01:16:34.230Z,12.20
2022-12-31T01:17:36.031Z,12.20
2022-12-31T01:18:38.333Z,12.20
2022-12-31T01:19:40.086Z,12.20
2022-12-31T01:20:43.576Z,12.10
2022-12-31T01:21:47.093Z,12.10
2022-12-31T01:22:48.847Z,12.10
2022-12-31T01:23:50.674Z,12.10
2022-12-31T01:24:52.462Z,12.00
2022-12-31T01:25:54.240Z,12.00
2022-12-31T01:26:58.093Z,12.00
2022-12-31T01:27:59.886Z,12.00
2022-12-31T01:29:01.790Z,12.00
2022-12-31T01:30:05.611Z,12.00
2022-12-31T01:31:10.404Z,11.90
2022-12-31T01:32:12.463Z,11.90
2022-12-31T01:33:14.357Z,11.90
2022-12-31T01:34:16.284Z,11.90
2022-12-31T01:35:18.689Z,11.80
2022-12-31T01:36:32.186Z,11.80
2022-12-31T01:37:33.998Z,11.80
2022-12-31T01:38:36.267Z,11.80
2022-12-31T01:39:38.046Z,11.70
2022-12-31T01:40:40.700Z,11.70
2022-12-31T01:41:45.540Z,11.70
2022-12-31T01:42:55.160Z,11.70
2022-12-31T01:44:03.681Z,11.70
2022-12-31T01:45:13.969Z,11.70
2022-12-31T01:46:46.273Z,11.70
2022-12-31T01:47:53.315Z,11.60
2022-12-31T01:49:00.293Z,11.60
2022-12-31T01:50:31.304Z,11.50
2022-12-31T01:51:34.973Z,11.40
2022-12-31T01:52:44.821Z,11.40
2022-12-31T01:53:47.145Z,11.30
2022-12-31T01:54:59.314Z,11.30
2022-12-31T01:56:02.142Z,11.30
2022-12-31T01:57:05.289Z,11.20
2022-12-31T01:58:30.996Z,11.20
2022-12-31T01:59:33.610Z,11.10
2022-12-31T02:00:35.576Z,11.10
2022-12-31T02:01:38.892Z,11.10
2022-12-31T02:02:40.877Z,11.10
2022-12-31T02:03:43.310Z,11.10
2022-12-31T02:04:45.200Z,11.00
2022-12-31T02:05:53.385Z,11.00
2022-12-31T02:07:01.789Z,10.90
2022-12-31T02:08:04.114Z,10.90
2022-12-31T02:09:07.018Z,10.90
2022-12-31T02:10:08.963Z,10.90
2022-12-31T02:11:23.168Z,10.90
2022-12-31T02:12:24.904Z,10.90
2022-12-31T02:13:26.721Z,10.90
2022-12-31T02:14:38.237Z,11.00
2022-12-31T02:15:57.166Z,11.00
2022-12-31T02:17:26.444Z,11.00
2022-12-31T02:18:43.049Z,11.00
2022-12-31T02:20:18.724Z,10.90
2022-12-31T02:21:45.880Z,10.90
2022-12-31T02:23:09.334Z,10.80
2022-12-31T02:24:38.986Z,10.70
2022-12-31T02:26:11.422Z,10.80
2022-12-31T02:27:24.007Z,10.70
2022-12-31T02:28:43.901Z,10.70
2022-12-31T02:30:07.735Z,10.60
2022-12-31T02:31:24.136Z,10.60
2022-12-31T02:32:45.866Z,10.60
2022-12-31T02:33:53.424Z,10.60
2022-12-31T02:35:02.653Z,10.60
2022-12-31T02:36:14.022Z,10.60
2022-12-31T02:37:18.793Z,10.50
2022-12-31T02:38:27.891Z,10.50
2022-12-31T02:39:30.877Z,10.50
2022-12-31T02:40:35.591Z,10.50
2022-12-31T02:41:53.807Z,10.50
2022-12-31T02:42:55.949Z,10.50
2022-12-31T02:43:57.762Z,10.50
2022-12-31T02:44:59.533Z,10.50
2022-12-31T02:46:29.440Z,10.50
2022-12-31T02:48:09.627Z,10.50
2022-12-31T02:49:21.183Z,10.40
2022-12-31T02:50:33.211Z,10.40
2022-12-31T02:52:14.170Z,10.40
2022-12-31T02:53:37.137Z,10.40
2022-12-31T02:55:13.783Z,10.40
2022-12-31T02:56:15.781Z,10.40
2022-12-31T02:57:28.831Z,10.30
2022-12-31T02:59:21.752Z,10.30
2022-12-31T03:00:42.493Z,10.30
2022-12-31T03:02:07.126Z,10.30
2022-12-31T03:03:10.552Z,10.20
2022-12-31T03:04:32.804Z,10.20
2022-12-31T03:05:38.813Z,10.20
2022-12-31T03:06:42.029Z,10.20
2022-12-31T03:07:44.779Z,10.20
2022-12-31T03:09:05.218Z,10.10
2022-12-31T03:10:07.627Z,10.10
2022-12-31T03:11:29.332Z,10.10
2022-12-31T03:12:48.936Z,10.10
2022-12-31T03:13:50.796Z,10.10
2022-12-31T03:14:52.900Z,10.00
2022-12-31T03:15:54.940Z,10.00
2022-12-31T03:16:56.693Z,10.00
2022-12-31T03:18:03.162Z,10.00
2022-12-31T03:19:23.654Z,9.90
2022-12-31T03:20:49.237Z,10.00
2022-12-31T03:22:09.536Z,9.90
2022-12-31T03:23:16.804Z,9.90
2022-12-31T03:24:37.205Z,9.80
2022-12-31T03:25:39.064Z,9.90
2022-12-31T03:26:40.771Z,9.80
2022-12-31T03:27:43.735Z,9.80
2022-12-31T03:28:47.881Z,9.70
2022-12-31T03:29:49.810Z,9.70
2022-12-31T03:30:54.999Z,9.70
2022-12-31T03:31:56.788Z,9.60
2022-12-31T03:32:59.117Z,9.60
2022-12-31T03:34:00.913Z,9.60
2022-12-31T03:35:02.771Z,9.60
2022-12-31T03:36:06.800Z,9.50
2022-12-31T03:37:08.559Z,9.50
2022-12-31T03:38:10.264Z,9.50
2022-12-31T03:39:12.006Z,9.50
2022-12-31T03:40:14.924Z,9.50
2022-12-31T03:41:16.666Z,9.50
2022-12-31T03:42:18.380Z,9.50
2022-12-31T03:43:20.787Z,9.50
2022-12-31T03:44:22.651Z,9.60
2022-12-31T03:45:24.610Z,9.60
2022-12-31T03:46:26.295Z,9.60
2022-12-31T03:47:28.098Z,9.70
2022-12-31T03:48:30.242Z,9.70
2022-12-31T03:49:32.322Z,9.70
2022-12-31T03:50:34.225Z,9.70
2022-12-31T03:51:36.018Z,9.70
2022-12-31T03:52:38.062Z,9.70
2022-12-31T03:53:39.848Z,9.70
2022-12-31T03:54:41.587Z,9.80
2022-12-31T03:55:43.387Z,9.80
2022-12-31T03:56:45.100Z,9.90
2022-12-31T03:57:46.827Z,9.90
2022-12-31T03:58:48.651Z,9.90
2022-12-31T03:59:50.453Z,10.00
2022-12-31T04:00:52.328Z,10.00
2022-12-31T04:01:54.229Z,10.00
2022-12-31T04:02:56.204Z,10.10
2022-12-31T04:03:58.012Z,10.20
2022-12-31T04:04:59.820Z,10.20
2022-12-31T04:06:01.497Z,10.30
2022-12-31T04:07:03.335Z,10.40
2022-12-31T04:08:05.167Z,10.50
2022-12-31T04:09:06.966Z,10.50
2022-12-31T04:10:10.984Z,10.60
2022-12-31T04:11:17.385Z,10.60
2022-12-31T04:12:22.352Z,10.60
2022-12-31T04:13:24.048Z,10.70
2022-12-31T04:14:25.750Z,10.80
2022-12-31T04:15:27.546Z,10.90
2022-12-31T04:16:29.395Z,10.90
2022-12-31T04:17:31.364Z,10.90
2022-12-31T04:18:33.072Z,11.00
2022-12-31T04:19:34.787Z,11.00
2022-12-31T04:20:36.531Z,11.00
2022-12-31T04:21:38.402Z,11.10
2022-12-31T04:22:40.165Z,11.10
2022-12-31T04:23:41.894Z,11.10
2022-12-31T04:24:44.120Z,11.10
2022-12-31T04:25:45.940Z,11.10
2022-12-31T04:26:47.727Z,11.10
2022-12-31T04:27:49.525Z,11.10
2022-12-31T04:28:51.235Z,11.10
2022-12-31T04:29:52.986Z,11.10
2022-12-31T04:30:54.683Z,11.10
2022-12-31T04:31:56.559Z,11.00
2022-12-31T04:32:58.293Z,11.00
2022-12-31T04:34:01.146Z,11.00
2022-12-31T04:35:02.966Z,11.00
2022-12-31T04:36:06.847Z,11.00
2022-12-31T04:37:08.628Z,11.00
2022-12-31T04:38:10.366Z,11.00
2022-12-31T04:39:12.125Z,11.00
2022-12-31T04:40:13.993Z,11.00
2022-12-31T04:41:18.964Z,11.00
2022-12-31T04:42:20.898Z,10.90
2022-12-31T04:43:22.643Z,10.90
2022-12-31T04:44:24.490Z,10.90
2022-12-31T04:45:26.282Z,10.90
2022-12-31T04:46:32.627Z,10.90
2022-12-31T04:47:34.390Z,10.90
2022-12-31T04:48:36.553Z,10.80
2022-12-31T04:49:38.326Z,10.90
2022-12-31T04:50:40.045Z,10.80
2022-12-31T04:51:41.927Z,10.80
2022-12-31T04:52:43.747Z,10.80
2022-12-31T04:53:45.657Z,10.80
2022-12-31T04:54:47.508Z,10.80
2022-12-31T04:55:49.258Z,10.80
2022-12-31T04:56:51.026Z,10.80
2022-12-31T04:57:52.748Z,10.80
2022-12-31T04:58:55.041Z,10.80
2022-12-31T04:59:56.741Z,10.80
2022-12-31T05:00:58.801Z,10.80
2022-12-31T05:02:01.027Z,10.80
2022-12-31T05:03:03.030Z,10.80
2022-12-31T05:04:05.024Z,10.80
2022-12-31T05:05:07.313Z,10.80
2022-12-31T05:06:16.020Z,10.80
2022-12-31T05:07:17.708Z,10.80
2022-12-31T05:08:20.062Z,10.80
2022-12-31T05:09:24.150Z,10.80
2022-12-31T05:10:25.946Z,10.70
2022-12-31T05:11:27.742Z,10.70
2022-12-31T05:12:29.493Z,10.70
2022-12-31T05:13:33.578Z,10.70
2022-12-31T05:14:35.586Z,10.70
2022-12-31T05:15:37.542Z,10.60
2022-12-31T05:16:39.414Z,10.60
2022-12-31T05:17:41.152Z,10.60
2022-12-31T05:18:42.932Z,10.60
2022-12-31T05:19:44.676Z,10.60
2022-12-31T05:20:47.681Z,10.60
2022-12-31T05:22:09.446Z,10.60
2022-12-31T05:23:11.417Z,10.60
2022-12-31T05:24:13.124Z,10.50
2022-12-31T05:25:14.976Z,10.50
2022-12-31T05:26:17.452Z,10.50
2022-12-31T05:27:19.339Z,10.50
2022-12-31T05:28:21.138Z,10.50
2022-12-31T05:29:22.837Z,10.40
2022-12-31T05:30:25.945Z,10.40
2022-12-31T05:31:27.943Z,10.40
2022-12-31T05:32:29.809Z,10.40
2022-12-31T05:33:31.512Z,10.40
2022-12-31T05:34:33.230Z,10.40
2022-12-31T05:35:35.232Z,10.40
2022-12-31T05:36:36.994Z,10.40
2022-12-31T05:37:39.355Z,10.40
2022-12-31T05:38:41.986Z,10.50
2022-12-31T05:39:43.669Z,10.50
2022-12-31T05:40:45.424Z,10.60
2022-12-31T05:41:47.137Z,10.70
2022-12-31T05:42:50.140Z,10.70
2022-12-31T05:43:51.821Z,10.80
2022-12-31T05:44:53.602Z,10.90
2022-12-31T05:45:55.500Z,11.00
2022-12-31T05:46:57.349Z,11.10
2022-12-31T05:47:59.213Z,11.20
2022-12-31T05:49:00.956Z,11.20
2022-12-31T05:50:02.694Z,11.30
2022-12-31T05:51:04.651Z,11.40
2022-12-31T05:52:07.063Z,11.50
2022-12-31T05:53:09.089Z,11.50
2022-12-31T05:54:10.863Z,11.60
2022-12-31T05:55:13.210Z,11.70
2022-12-31T05:56:15.070Z,11.90
2022-12-31T05:57:16.950Z,12.00
2022-12-31T05:58:18.894Z,12.10
2022-12-31T05:59:20.706Z,12.10
2022-12-31T06:00:22.545Z,12.20
2022-12-31T06:01:24.393Z,12.20
2022-12-31T06:02:26.559Z,12.20
2022-12-31T06:03:28.451Z,12.20
2022-12-31T06:04:30.397Z,12.30
2022-12-31T06:05:32.121Z,12.30
2022-12-31T06:06:33.937Z,12.30
2022-12-31T06:07:35.821Z,12.30
2022-12-31T06:08:37.633Z,12.30
2022-12-31T06:09:39.413Z,12.30
2022-12-31T06:10:41.191Z,12.30
2022-12-31T06:11:43.377Z,12.40
2022-12-31T06:12:45.132Z,12.40
2022-12-31T06:13:46.944Z,12.40
2022-12-31T06:14:48.630Z,12.30
2022-12-31T06:15:50.348Z,12.30
2022-12-31T06:16:52.132Z,12.30
2022-12-31T06:17:53.893Z,12.30
2022-12-31T06:18:55.741Z,12.30
2022-12-31T06:19:57.515Z,12.30
2022-12-31T06:20:59.288Z,12.30
2022-12-31T06:22:01.003Z,12.30
2022-12-31T06:23:02.768Z,12.30
2022-12-31T06:24:04.788Z,12.30
2022-12-31T06:25:07.035Z,12.20
2022-12-31T06:26:09.055Z,12.20
2022-12-31T06:27:10.783Z,12.30
2022-12-31T06:28:19.828Z,12.20
2022-12-31T06:29:22.251Z,12.20
2022-12-31T06:30:24.080Z,12.20
2022-12-31T06:31:25.873Z,12.10
2022-12-31T06:32:27.733Z,12.10
2022-12-31T06:33:29.759Z,12.00
2022-12-31T06:34:31.571Z,12.00
2022-12-31T06:35:33.567Z,12.00
2022-12-31T06:36:35.292Z,12.00
2022-12-31T06:37:37.129Z,12.00
2022-12-31T06:38:40.776Z,11.90
2022-12-31T06:39:42.593Z,11.90
2022-12-31T06:40:44.324Z,11.90
2022-12-31T06:41:46.068Z,11.90
2022-12-31T06:42:47.909Z,11.90
2022-12-31T06:43:49.746Z,12.00
2022-12-31T06:44:51.518Z,12.00
2022-12-31T06:45:53.283Z,12.10
2022-12-31T06:46:55.179Z,12.10
2022-12-31T06:47:57.088Z,12.20
2022-12-31T06:48:58.848Z,12.20
2022-12-31T06:50:00.647Z,12.20
2022-12-31T06:51:17.527Z,12.20
2022-12-31T06:52:19.625Z,12.20
2022-12-31T06:53:21.593Z,12.20
2022-12-31T06:54:23.326Z,12.10
2022-12-31T06:55:25.456Z,12.10
2022-12-31T06:56:34.741Z,12.00
2022-12-31T06:57:37.546Z,12.00
2022-12-31T06:58:39.815Z,12.00
2022-12-31T06:59:41.937Z,12.00
2022-12-31T07:00:55.430Z,11.90
2022-12-31T07:02:35.478Z,11.90
2022-12-31T07:03:42.229Z,11.80
2022-12-31T07:04:59.147Z,11.90
2022-12-31T07:06:21.180Z,11.90
2022-12-31T07:07:48.261Z,11.90
2022-12-31T07:09:18.181Z,11.90
2022-12-31T07:10:29.464Z,11.90
2022-12-31T07:12:04.163Z,11.90
2022-12-31T07:13:15.215Z,11.80
2022-12-31T07:14:37.818Z,11.80
2022-12-31T07:16:21.355Z,11.80
2022-12-31T07:17:41.595Z,11.70
2022-12-31T07:19:11.246Z,11.80
2022-12-31T07:20:15.828Z,11.80
2022-12-31T07:21:29.384Z,11.80
2022-12-31T07:22:31.415Z,11.70
2022-12-31T07:23:33.482Z,11.70
2022-12-31T07:24:35.548Z,11.70
2022-12-31T07:25:44.091Z,11.70
2022-12-31T07:27:00.673Z,11.70
2022-12-31T07:28:20.339Z,11.70
2022-12-31T07:29:46.928Z,11.70
2022-12-31T07:31:04.335Z,11.70
2022-12-31T07:32:43.843Z,11.80
2022-12-31T07:33:57.610Z,11.70
2022-12-31T07:35:21.098Z,11.70
2022-12-31T07:36:59.153Z,11.70
2022-12-31T07:38:51.467Z,11.70
2022-12-31T07:40:06.457Z,11.70
2022-12-31T07:41:24.924Z,11.70
2022-12-31T07:42:35.539Z,11.70
2022-12-31T07:43:45.955Z,11.70
2022-12-31T07:45:19.295Z,11.80
2022-12-31T07:47:09.029Z,11.80
2022-12-31T07:48:27.837Z,11.80
2022-12-31T07:49:32.452Z,11.90
2022-12-31T07:50:34.461Z,11.90
2022-12-31T07:51:36.559Z,11.90
2022-12-31T07:52:38.627Z,12.00
2022-12-31T07:53:40.418Z,12.00
2022-12-31T07:54:42.242Z,12.00
2022-12-31T07:55:43.998Z,12.00
2022-12-31T07:56:46.384Z,12.00
2022-12-31T07:58:20.223Z,12.00
2022-12-31T07:59:27.978Z,12.10
2022-12-31T08:00:30.796Z,12.10
2022-12-31T08:01:55.047Z,12.10
2022-12-31T08:03:32.092Z,12.20
2022-12-31T08:05:21.684Z,12.20
2022-12-31T08:06:32.066Z,12.30
2022-12-31T08:07:36.581Z,12.30
2022-12-31T08:08:57.018Z,12.40
2022-12-31T08:10:37.243Z,12.50
2022-12-31T08:11:56.454Z,12.60
2022-12-31T08:13:02.717Z,12.70
2022-12-31T08:14:08.751Z,12.70
2022-12-31T08:15:16.251Z,12.70
2022-12-31T08:16:18.368Z,12.80
2022-12-31T08:17:20.673Z,12.80
2022-12-31T08:18:22.621Z,12.90
2022-12-31T08:19:28.454Z,13.00
2022-12-31T08:20:32.432Z,12.90
2022-12-31T08:22:07.439Z,13.10
2022-12-31T08:23:21.894Z,13.10
2022-12-31T08:24:42.352Z,13.10
2022-12-31T08:25:44.083Z,13.20
2022-12-31T08:27:10.168Z,13.20
2022-12-31T08:28:41.164Z,13.20
2022-12-31T08:30:10.141Z,13.30
2022-12-31T08:31:19.251Z,13.40
2022-12-31T08:33:05.547Z,13.40
2022-12-31T08:34:17.040Z,13.50
2022-12-31T08:35:45.356Z,13.50
2022-12-31T08:37:03.367Z,13.60
2022-12-31T08:38:39.649Z,13.60
2022-12-31T08:39:50.654Z,13.70
2022-12-31T08:41:09.142Z,13.70
2022-12-31T08:42:24.759Z,13.80
2022-12-31T08:43:50.165Z,13.80
2022-12-31T08:45:26.596Z,13.80
2022-12-31T08:46:34.677Z,13.90
2022-12-31T08:48:02.867Z,13.90
2022-12-31T08:49:04.990Z,13.90
2022-12-31T08:50:12.873Z,13.90
2022-12-31T08:51:21.471Z,13.90
2022-12-31T08:52:25.861Z,14.00
2022-12-31T08:53:27.908Z,14.00
2022-12-31T08:54:30.406Z,14.00
2022-12-31T08:55:32.359Z,14.00
2022-12-31T08:57:01.421Z,14.00
2022-12-31T08:58:57.774Z,13.90
2022-12-31T09:00:18.397Z,13.90
2022-12-31T09:01:24.485Z,13.90
2022-12-31T09:03:07.765Z,14.00
2022-12-31T09:04:39.111Z,14.00
2022-12-31T09:06:10.312Z,14.10
2022-12-31T09:07:13.928Z,14.10
2022-12-31T09:08:34.808Z,14.10
2022-12-31T09:09:51.994Z,14.10
2022-12-31T09:11:05.804Z,14.10
2022-12-31T09:12:23.720Z,14.10
2022-12-31T09:13:32.165Z,14.10
2022-12-31T09:14:55.941Z,14.10
2022-12-31T09:16:16.558Z,14.10
2022-12-31T09:17:24.256Z,14.10
2022-12-31T09:18:31.362Z,14.20
2022-12-31T09:19:35.054Z,14.20
2022-12-31T09:20:44.977Z,14.20
2022-12-31T09:21:47.276Z,14.20
2022-12-31T09:22:50.040Z,14.20
2022-12-31T09:23:52.227Z,14.20
2022-12-31T09:24:54.189Z,14.20
2022-12-31T09:26:25.219Z,14.20
2022-12-31T09:27:44.338Z,14.30
2022-12-31T09:29:13.314Z,14.40
2022-12-31T09:30:17.477Z,14.50
2022-12-31T09:31:38.377Z,14.60
2022-12-31T09:33:22.020Z,14.70
2022-12-31T09:34:45.062Z,14.70
2022-12-31T09:36:01.137Z,14.80
2022-12-31T09:37:44.055Z,14.80
2022-12-31T09:39:00.724Z,14.90
2022-12-31T09:40:23.541Z,14.90
2022-12-31T09:41:48.303Z,14.90
2022-12-31T09:43:02.334Z,14.90
2022-12-31T09:44:22.628Z,14.90
2022-12-31T09:45:47.012Z,15.00
2022-12-31T09:47:16.881Z,15.00
2022-12-31T09:48:30.234Z,15.10
2022-12-31T09:49:51.563Z,15.20
2022-12-31T09:50:56.416Z,15.10
2022-12-31T09:52:24.999Z,15.20
2022-12-31T09:53:30.109Z,15.20
2022-12-31T09:54:54.198Z,15.20
2022-12-31T09:56:12.731Z,15.30
2022-12-31T09:57:33.174Z,15.30
2022-12-31T09:58:52.301Z,15.40
2022-12-31T10:00:20.275Z,15.50
2022-12-31T10:01:42.826Z,15.50
2022-12-31T10:03:00.533Z,15.60
2022-12-31T10:04:25.582Z,15.60
2022-12-31T10:05:39.031Z,15.70
2022-12-31T10:07:04.009Z,15.70
2022-12-31T10:08:18.577Z,15.70
2022-12-31T10:09:23.103Z,15.70
2022-12-31T10:10:39.899Z,15.80
2022-12-31T10:11:57.617Z,15.80
2022-12-31T10:13:14.493Z,15.80
2022-12-31T10:14:47.521Z,15.90
2022-12-31T10:16:20.090Z,16.00
2022-12-31T10:17:42.095Z,16.00
2022-12-31T10:18:57.471Z,16.10
2022-12-31T10:20:24.283Z,16.20
2022-12-31T10:21:48.915Z,16.20
2022-12-31T10:22:59.578Z,16.30
2022-12-31T10:24:25.937Z,16.30
2022-12-31T10:25:43.734Z,16.30
2022-12-31T10:27:03.289Z,16.30
2022-12-31T10:28:25.681Z,16.40
2022-12-31T10:29:56.868Z,16.30
2022-12-31T10:31:26.556Z,16.40
2022-12-31T10:32:52.522Z,16.30
2022-12-31T10:34:00.322Z,16.30
2022-12-31T10:35:21.045Z,16.30
2022-12-31T10:36:53.360Z,16.30
2022-12-31T10:38:05.133Z,16.40
2022-12-31T10:39:36.706Z,16.40
2022-12-31T10:41:15.619Z,16.30
2022-12-31T10:42:26.002Z,16.40
2022-12-31T10:43:45.760Z,16.40
2022-12-31T10:45:12.475Z,16.50
2022-12-31T10:46:32.896Z,16.50
2022-12-31T10:47:53.538Z,16.50
2022-12-31T10:49:22.697Z,16.60
2022-12-31T10:50:39.544Z,16.70
2022-12-31T10:52:12.284Z,16.60
2022-12-31T10:53:53.578Z,16.60
2022-12-31T10:55:32.329Z,16.60
2022-12-31T10:56:53.234Z,16.50
2022-12-31T10:58:16.620Z,16.50
2022-12-31T10:59:37.655Z,16.50
2022-12-31T11:00:42.500Z,16.50
2022-12-31T11:01:59.466Z,16.50
2022-12-31T11:03:43.490Z,16.60
2022-12-31T11:05:12.595Z,16.60
2022-12-31T11:06:30.221Z,16.60
2022-12-31T11:07:58.139Z,16.60
2022-12-31T11:09:11.788Z,16.60
2022-12-31T11:10:34.555Z,16.60
2022-12-31T11:12:04.164Z,16.60
2022-12-31T11:13:40.079Z,16.60
2022-12-31T11:15:09.959Z,16.70
2022-12-31T11:16:45.124Z,16.70
2022-12-31T11:18:08.759Z,16.80
2022-12-31T11:19:39.836Z,16.90
2022-12-31T11:21:17.273Z,16.90
2022-12-31T11:22:42.924Z,16.90
2022-12-31T11:24:01.461Z,17.00
2022-12-31T11:25:12.746Z,17.00
2022-12-31T11:26:38.192Z,17.00
2022-12-31T11:28:04.051Z,17.00
2022-12-31T11:29:30.312Z,17.00
2022-12-31T11:31:03.861Z,17.00
2022-12-31T11:32:23.232Z,17.00
2022-12-31T11:33:48.535Z,17.00
2022-12-31T11:35:13.006Z,17.10
2022-12-31T11:36:36.456Z,17.10
2022-12-31T11:37:44.898Z,17.10
2022-12-31T11:39:11.116Z,17.10
2022-12-31T11:40:33.893Z,17.10
2022-12-31T11:41:46.269Z,17.10
2022-12-31T11:42:57.069Z,17.10
2022-12-31T11:44:19.289Z,17.10
2022-12-31T11:45:54.078Z,17.10
2022-12-31T11:47:07.753Z,17.10
2022-12-31T11:48:30.561Z,17.10
2022-12-31T11:50:10.522Z,17.20
2022-12-31T11:51:33.671Z,17.20
2022-12-31T11:53:00.225Z,17.20
2022-12-31T11:54:47.259Z,17.10
2022-12-31T11:56:20.856Z,17.10
2022-12-31T11:57:37.019Z,17.10
2022-12-31T11:58:42.249Z,17.20
2022-12-31T11:59:44.540Z,17.10
2022-12-31T12:01:03.092Z,17.10
2022-12-31T12:02:21.235Z,17.20
2022-12-31T12:03:24.643Z,17.20
2022-12-31T12:04:26.746Z,17.30
2022-12-31T12:05:28.605Z,17.30
2022-12-31T12:06:33.689Z,17.30
2022-12-31T12:07:35.484Z,17.30
2022-12-31T12:08:37.833Z,17.30
2022-12-31T12:09:41.190Z,17.30
2022-12-31T12:10:47.440Z,17.30
2022-12-31T12:12:02.310Z,17.30
2022-12-31T12:13:18.085Z,17.20
2022-12-31T12:14:21.697Z,17.20
2022-12-31T12:15:27.836Z,17.20
2022-12-31T12:16:29.800Z,17.20
2022-12-31T12:17:34.431Z,17.20
2022-12-31T12:18:36.984Z,17.20
2022-12-31T12:19:44.770Z,17.20
2022-12-31T12:20:46.814Z,17.20
2022-12-31T12:21:49.993Z,17.20
2022-12-31T12:22:55.996Z,17.30
2022-12-31T12:24:05.051Z,17.30
2022-12-31T12:25:16.393Z,17.30
2022-12-31T12:26:41.755Z,17.40
2022-12-31T12:27:43.656Z,17.50
2022-12-31T12:28:46.477Z,17.50
2022-12-31T12:29:48.356Z,17.50
2022-12-31T12:30:57.058Z,17.50
2022-12-31T12:32:20.359Z,17.60
2022-12-31T12:33:22.513Z,17.60
2022-12-31T12:34:25.821Z,17.60
2022-12-31T12:35:32.193Z,17.60
2022-12-31T12:36:34.098Z,17.60
2022-12-31T12:37:36.949Z,17.50
2022-12-31T12:38:39.478Z,17.50
2022-12-31T12:39:41.278Z,17.50
2022-12-31T12:40:54.925Z,17.50
2022-12-31T12:42:12.861Z,17.50
2022-12-31T12:43:32.701Z,17.50
2022-12-31T12:44:35.871Z,17.50
2022-12-31T12:45:51.856Z,17.50
2022-12-31T12:46:54.352Z,17.40
2022-12-31T12:48:00.079Z,17.50
2022-12-31T12:49:03.137Z,17.50
2022-12-31T12:50:09.911Z,17.50
2022-12-31T12:51:32.369Z,17.40
2022-12-31T12:52:46.022Z,17.40
2022-12-31T12:53:50.703Z,17.40
2022-12-31T12:55:09.496Z,17.40
2022-12-31T12:56:19.586Z,17.40
2022-12-31T12:57:39.233Z,17.50
2022-12-31T12:59:19.566Z,17.50
2022-12-31T13:00:24.990Z,17.50
2022-12-31T13:01:37.357Z,17.50
2022-12-31T13:03:13.056Z,17.50
2022-12-31T13:04:48.175Z,17.50
2022-12-31T13:05:58.203Z,17.40
2022-12-31T13:07:15.098Z,17.40
2022-12-31T13:08:35.890Z,17.40
2022-12-31T13:10:08.529Z,17.50
2022-12-31T13:11:48.676Z,17.40
2022-12-31T13:15:06.273Z,17.40
2022-12-31T13:16:19.977Z,17.40
2022-12-31T13:17:54.046Z,17.40
2022-12-31T13:19:04.053Z,17.40
2022-12-31T13:20:19.544Z,17.30
2022-12-31T13:22:01.400Z,17.30
2022-12-31T13:23:03.128Z,17.20
2022-12-31T13:24:22.243Z,17.20
2022-12-31T13:25:58.802Z,17.10
2022-12-31T13:27:05.819Z,17.00
2022-12-31T13:28:13.721Z,16.90
2022-12-31T13:29:20.896Z,16.80
2022-12-31T13:30:28.357Z,16.80
2022-12-31T13:31:40.385Z,16.70
2022-12-31T13:32:49.363Z,16.70
2022-12-31T13:34:30.339Z,16.70
2022-12-31T13:35:54.870Z,16.70
2022-12-31T13:37:02.140Z,16.70
2022-12-31T13:38:28.612Z,16.70
2022-12-31T13:39:36.188Z,16.70
2022-12-31T13:41:09.065Z,16.70
2022-12-31T13:42:21.226Z,16.70
2022-12-31T13:43:35.060Z,16.60
2022-12-31T13:44:43.732Z,16.70
2022-12-31T13:45:52.548Z,16.70
2022-12-31T13:47:12.808Z,16.60
2022-12-31T13:48:20.053Z,16.60
2022-12-31T13:49:26.744Z,16.50
2022-12-31T13:50:46.694Z,16.50
2022-12-31T13:51:58.803Z,16.40
2022-12-31T13:53:12.372Z,16.30
2022-12-31T13:54:36.494Z,16.30
2022-12-31T13:56:02.135Z,16.20
2022-12-31T13:57:37.479Z,16.10
2022-12-31T13:59:03.525Z,16.10
2022-12-31T14:00:52.171Z,16.00
2022-12-31T14:02:19.079Z,16.00
2022-12-31T14:03:42.322Z,16.00
2022-12-31T14:04:50.916Z,16.00
2022-12-31T14:05:58.591Z,15.90
2022-12-31T14:07:21.662Z,15.90
2022-12-31T14:08:23.522Z,15.90
2022-12-31T14:09:28.735Z,15.80
2022-12-31T14:10:54.897Z,15.80
2022-12-31T14:12:18.312Z,15.70
2022-12-31T14:13:22.893Z,15.70
2022-12-31T14:14:55.364Z,15.70
2022-12-31T14:16:23.146Z,15.60
2022-12-31T14:17:43.719Z,15.50
2022-12-31T14:18:45.456Z,15.50
2022-12-31T14:20:24.939Z,15.40
2022-12-31T14:22:03.475Z,15.30
2022-12-31T14:23:37.258Z,15.30
2022-12-31T14:24:52.712Z,15.20
2022-12-31T14:26:05.750Z,15.20
2022-12-31T14:27:17.187Z,15.10
2022-12-31T14:28:30.319Z,15.10
2022-12-31T14:29:42.915Z,15.00
2022-12-31T14:30:47.012Z,15.00
2022-12-31T14:31:48.828Z,14.90
2022-12-31T14:33:15.303Z,14.90
2022-12-31T14:34:35.426Z,14.80
2022-12-31T14:36:14.114Z,14.80
2022-12-31T14:37:42.390Z,14.80
2022-12-31T14:39:09.001Z,14.70
2022-12-31T14:40:37.783Z,14.70
2022-12-31T14:41:42.489Z,14.60
2022-12-31T14:43:27.634Z,14.60
2022-12-31T14:44:37.327Z,14.60
2022-12-31T14:45:39.016Z,14.50
2022-12-31T14:47:13.244Z,14.50
2022-12-31T14:48:47.192Z,14.50
2022-12-31T14:50:22.876Z,14.40
2022-12-31T14:51:29.199Z,14.40
2022-12-31T14:53:00.349Z,14.40
2022-12-31T14:54:02.337Z,14.30
2022-12-31T14:55:10.082Z,14.20
2022-12-31T14:56:44.031Z,14.20
2022-12-31T14:59:26.210Z,14.10
2022-12-31T15:00:33.493Z,14.00
2022-12-31T15:01:45.471Z,14.00
2022-12-31T15:02:53.552Z,14.00
2022-12-31T15:03:57.981Z,13.90
2022-12-31T15:05:11.807Z,13.90
2022-12-31T15:06:22.915Z,13.80
2022-12-31T15:07:36.073Z,13.70
2022-12-31T15:08:51.261Z,13.70
2022-12-31T15:10:04.780Z,13.60
2022-12-31T15:11:39.219Z,13.60
2022-12-31T15:13:02.934Z,13.50
2022-12-31T15:14:18.947Z,13.50
2022-12-31T15:15:52.286Z,13.40
2022-12-31T15:17:13.784Z,13.40
2022-12-31T15:18:21.963Z,13.30
2022-12-31T15:19:42.725Z,13.30
2022-12-31T15:21:09.173Z,13.20
2022-12-31T15:22:35.531Z,13.20
2022-12-31T15:23:39.602Z,13.20
2022-12-31T15:24:46.704Z,13.10
2022-12-31T15:25:52.944Z,13.10